Terminal Aerodrome Forecast
Issued by NWS Blacksburg, VA

Current Version | Previous Version | Graphics & Text | Print | Product List | Glossary On
Versions: 1 2 3 4 5 6 7 8 9 10 11 12 13 14 15 16 17
000
FTUS41 KRNK 010520
TAFBLF
TAF
KBLF 010520Z 0106/0206 30010G20KT P6SM OVC022
     FM011500 27013G24KT P6SM BKN050
     FM012000 29009G22KT P6SM SCT050=

USA.gov is the U.S. government's official web portal to all federal, state and local government web resources and services.